createdAt,value
2023-04-22T00:07:05.681Z,87.32
2023-04-22T00:22:07.371Z,86.77
2023-04-22T00:37:09.025Z,88.98
2023-04-22T00:52:10.704Z,92.16
2023-04-22T01:07:12.350Z,93.88
2023-04-22T01:22:15.238Z,96.08
2023-04-22T01:37:18.088Z,98.16
2023-04-22T01:52:19.922Z,98.13
2023-04-22T02:07:21.533Z,99.62
2023-04-22T02:22:24.059Z,98.92
2023-04-22T02:37:25.767Z,100.00
2023-04-22T02:52:27.465Z,100.00
2023-04-22T03:07:29.125Z,100.00
2023-04-22T03:22:30.848Z,100.00
2023-04-22T03:37:32.563Z,100.00
2023-04-22T03:52:34.152Z,100.00
2023-04-22T04:07:35.742Z,100.00
2023-04-22T04:22:38.897Z,100.00
2023-04-22T04:37:43.288Z,100.00
2023-04-22T04:52:44.936Z,98.65
2023-04-22T05:07:46.693Z,95.35
2023-04-22T05:22:48.350Z,93.07
2023-04-22T05:37:50.047Z,88.33
2023-04-22T05:52:51.644Z,88.60
2023-04-22T06:07:53.297Z,88.57
2023-04-22T06:22:54.972Z,85.35
2023-04-22T06:37:56.871Z,83.90
2023-04-22T06:52:58.584Z,82.25
2023-04-22T07:08:00.222Z,80.61
2023-04-22T07:23:01.865Z,77.88
2023-04-22T07:38:03.965Z,77.38
2023-04-22T07:53:06.070Z,74.64
2023-04-22T08:08:08.127Z,73.51
2023-04-22T08:23:10.893Z,69.06
2023-04-22T08:38:12.554Z,68.42
2023-04-22T08:53:14.519Z,68.47
2023-04-22T09:08:16.215Z,66.63
2023-04-22T09:23:17.829Z,63.25
2023-04-22T09:38:20.678Z,62.64
2023-04-22T09:53:22.497Z,57.12
2023-04-22T10:08:24.137Z,52.40
2023-04-22T10:23:26.274Z,55.39
2023-04-22T10:38:27.922Z,56.16
2023-04-22T10:53:36.671Z,54.01
2023-04-22T11:08:38.334Z,53.73
2023-04-22T11:23:51.834Z,50.36
2023-04-22T11:38:57.285Z,55.48
2023-04-22T11:54:00.431Z,58.64
2023-04-22T12:09:02.589Z,57.98
2023-04-22T12:24:11.290Z,59.87
2023-04-22T12:39:13.077Z,60.18
2023-04-22T12:54:14.756Z,61.36
2023-04-22T13:09:16.676Z,63.36
2023-04-22T13:24:18.268Z,60.95
2023-04-22T13:39:19.919Z,59.03
2023-04-22T13:54:21.568Z,58.23
2023-04-22T14:09:23.220Z,54.42
2023-04-22T14:24:25.035Z,55.55
2023-04-22T14:39:26.705Z,56.49
2023-04-22T14:54:28.326Z,55.06
2023-04-22T15:09:29.994Z,54.64
2023-04-22T15:24:31.689Z,54.29
2023-04-22T15:39:33.540Z,59.57
2023-04-22T15:54:35.472Z,61.68
2023-04-22T16:09:37.094Z,60.50
2023-04-22T16:24:38.772Z,61.05
2023-04-22T16:39:40.726Z,62.67
2023-04-22T16:54:42.807Z,66.61
2023-04-22T17:09:44.468Z,68.16
2023-04-22T17:24:46.211Z,74.54
2023-04-22T17:39:47.854Z,76.06
2023-04-22T17:54:49.716Z,75.23
2023-04-22T18:09:51.425Z,76.72
2023-04-22T18:24:53.231Z,78.54
2023-04-22T18:39:54.914Z,80.14
2023-04-22T18:54:56.525Z,78.76
2023-04-22T19:09:58.187Z,77.24
2023-04-22T19:25:02.080Z,79.04
2023-04-22T19:40:04.457Z,79.54
2023-04-22T19:55:10.674Z,83.61
2023-04-22T20:10:13.770Z,84.02
2023-04-22T20:25:17.364Z,87.32
2023-04-22T20:40:20.380Z,89.48
2023-04-22T20:55:23.206Z,92.05
2023-04-22T21:10:25.285Z,90.11
2023-04-22T21:25:28.503Z,90.04
2023-04-22T21:40:30.168Z,91.25
2023-04-22T21:55:32.156Z,90.72
2023-04-22T22:10:33.965Z,93.35
2023-04-22T22:25:35.737Z,92.53
2023-04-22T22:40:37.453Z,94.11
2023-04-22T22:55:39.136Z,94.90
2023-04-22T23:10:40.811Z,95.90
2023-04-22T23:25:42.829Z,94.33
2023-04-22T23:40:44.456Z,93.99
2023-04-22T23:55:46.545Z,94.63
